Terminal Aerodrome Forecast
Issued by NWS North Platte, NE

Home | Current Version | Previous Version | Graphics & Text | Print | Product List | Glossary On
Versions: 1 2 3 4 5 6 7 8 9 10 11 12 13 14 15 16 17 18 19 20 21 22 23
269
FTUS43 KLBF 241140
TAFVTN
TAF
KVTN 241140Z 2412/2512 35013G20KT P6SM OVC035
     FM241500 36015G22KT P6SM BKN030 OVC050
     FM241800 01013G20KT P6SM OVC050
     FM250000 01012KT P6SM BKN250
     FM250300 01006KT P6SM FEW200=

USA.gov is the U.S. government's official web portal to all federal, state and local government web resources and services.